sensor_id;sensor_type;location;lat;lon;timestamp;temperature;humidity
78704;SHT31;68034;51.966;5.676;2023-03-23T00:01:39;13.3;74.1
78704;SHT31;68034;51.966;5.676;2023-03-23T00:04:08;13.4;73.9
78704;SHT31;68034;51.966;5.676;2023-03-23T00:06:44;13.5;73.5
78704;SHT31;68034;51.966;5.676;2023-03-23T00:09:14;13.6;72.6
78704;SHT31;68034;51.966;5.676;2023-03-23T00:11:43;13.6;72.4
78704;SHT31;68034;51.966;5.676;2023-03-23T00:14:12;13.6;72.4
78704;SHT31;68034;51.966;5.676;2023-03-23T00:16:41;13.6;72.2
78704;SHT31;68034;51.966;5.676;2023-03-23T00:19:13;13.6;72.1
78704;SHT31;68034;51.966;5.676;2023-03-23T00:21:44;13.6;72.2
78704;SHT31;68034;51.966;5.676;2023-03-23T00:24:15;13.6;71.9
78704;SHT31;68034;51.966;5.676;2023-03-23T00:26:46;13.6;72.2
78704;SHT31;68034;51.966;5.676;2023-03-23T00:29:18;13.6;72.2
78704;SHT31;68034;51.966;5.676;2023-03-23T00:31:50;13.6;72.3
78704;SHT31;68034;51.966;5.676;2023-03-23T00:34:21;13.6;72.1
78704;SHT31;68034;51.966;5.676;2023-03-23T00:36:52;13.6;72.3
78704;SHT31;68034;51.966;5.676;2023-03-23T00:39:24;13.6;72.4
78704;SHT31;68034;51.966;5.676;2023-03-23T00:41:54;13.6;72.4
78704;SHT31;68034;51.966;5.676;2023-03-23T00:44:27;13.6;72.8
78704;SHT31;68034;51.966;5.676;2023-03-23T00:46:56;13.6;72.6
78704;SHT31;68034;51.966;5.676;2023-03-23T00:49:26;13.6;73.5
78704;SHT31;68034;51.966;5.676;2023-03-23T00:51:56;13.6;73.2
78704;SHT31;68034;51.966;5.676;2023-03-23T00:54:25;13.6;73.2
78704;SHT31;68034;51.966;5.676;2023-03-23T00:56:55;13.5;73.2
78704;SHT31;68034;51.966;5.676;2023-03-23T00:59:24;13.5;73.3
78704;SHT31;68034;51.966;5.676;2023-03-23T01:01:53;13.5;73.3
78704;SHT31;68034;51.966;5.676;2023-03-23T01:04:22;13.4;73.3
78704;SHT31;68034;51.966;5.676;2023-03-23T01:06:51;13.4;72.9
78704;SHT31;68034;51.966;5.676;2023-03-23T01:09:20;13.4;72.5
78704;SHT31;68034;51.966;5.676;2023-03-23T01:11:51;13.4;73.2
78704;SHT31;68034;51.966;5.676;2023-03-23T01:14:22;13.4;73.3
78704;SHT31;68034;51.966;5.676;2023-03-23T01:16:51;13.3;73.5
78704;SHT31;68034;51.966;5.676;2023-03-23T01:19:20;13.3;73.4
78704;SHT31;68034;51.966;5.676;2023-03-23T01:21:48;13.3;72.9
78704;SHT31;68034;51.966;5.676;2023-03-23T01:24:17;13.3;73.0
78704;SHT31;68034;51.966;5.676;2023-03-23T01:26:46;13.3;73.0
78704;SHT31;68034;51.966;5.676;2023-03-23T01:29:15;13.3;73.3
78704;SHT31;68034;51.966;5.676;2023-03-23T01:31:44;13.3;73.3
78704;SHT31;68034;51.966;5.676;2023-03-23T01:34:15;13.3;73.5
78704;SHT31;68034;51.966;5.676;2023-03-23T01:36:44;13.3;73.6
78704;SHT31;68034;51.966;5.676;2023-03-23T01:39:13;13.3;73.3
78704;SHT31;68034;51.966;5.676;2023-03-23T01:41:41;13.3;73.3
78704;SHT31;68034;51.966;5.676;2023-03-23T01:45:27;13.3;73.2
78704;SHT31;68034;51.966;5.676;2023-03-23T01:48:01;13.3;72.9
78704;SHT31;68034;51.966;5.676;2023-03-23T01:50:34;13.3;72.9
78704;SHT31;68034;51.966;5.676;2023-03-23T01:53:07;13.3;72.6
78704;SHT31;68034;51.966;5.676;2023-03-23T01:55:40;13.3;72.8
78704;SHT31;68034;51.966;5.676;2023-03-23T01:58:11;13.3;72.7
78704;SHT31;68034;51.966;5.676;2023-03-23T02:00:40;13.3;72.7
78704;SHT31;68034;51.966;5.676;2023-03-23T02:03:09;13.4;72.6
78704;SHT31;68034;51.966;5.676;2023-03-23T02:05:41;13.4;72.8
78704;SHT31;68034;51.966;5.676;2023-03-23T02:08:11;13.4;72.9
78704;SHT31;68034;51.966;5.676;2023-03-23T02:10:42;13.4;73.0
78704;SHT31;68034;51.966;5.676;2023-03-23T02:13:12;13.4;73.0
78704;SHT31;68034;51.966;5.676;2023-03-23T02:15:50;13.4;72.8
78704;SHT31;68034;51.966;5.676;2023-03-23T02:18:34;13.4;73.0
78704;SHT31;68034;51.966;5.676;2023-03-23T02:25:31;13.4;73.0
78704;SHT31;68034;51.966;5.676;2023-03-23T02:28:24;13.4;73.1
78704;SHT31;68034;51.966;5.676;2023-03-23T02:31:08;13.4;73.6
78704;SHT31;68034;51.966;5.676;2023-03-23T02:33:57;13.5;73.1
78704;SHT31;68034;51.966;5.676;2023-03-23T02:36:32;13.6;73.3
78704;SHT31;68034;51.966;5.676;2023-03-23T02:39:08;13.7;72.3
78704;SHT31;68034;51.966;5.676;2023-03-23T02:41:43;13.7;72.2
78704;SHT31;68034;51.966;5.676;2023-03-23T02:44:15;13.7;71.8
78704;SHT31;68034;51.966;5.676;2023-03-23T02:46:51;13.8;72.4
78704;SHT31;68034;51.966;5.676;2023-03-23T02:49:26;13.9;71.9
78704;SHT31;68034;51.966;5.676;2023-03-23T02:51:59;14.0;71.1
78704;SHT31;68034;51.966;5.676;2023-03-23T02:54:30;14.0;71.1
78704;SHT31;68034;51.966;5.676;2023-03-23T02:57:00;14.0;70.9
78704;SHT31;68034;51.966;5.676;2023-03-23T02:59:29;14.0;70.8
78704;SHT31;68034;51.966;5.676;2023-03-23T03:02:07;14.0;70.7
78704;SHT31;68034;51.966;5.676;2023-03-23T03:04:40;14.0;70.7
78704;SHT31;68034;51.966;5.676;2023-03-23T03:07:35;14.0;70.6
78704;SHT31;68034;51.966;5.676;2023-03-23T03:10:09;14.0;70.6
78704;SHT31;68034;51.966;5.676;2023-03-23T03:12:46;14.0;70.4
78704;SHT31;68034;51.966;5.676;2023-03-23T03:15:21;14.0;70.1
78704;SHT31;68034;51.966;5.676;2023-03-23T03:17:58;14.0;70.1
78704;SHT31;68034;51.966;5.676;2023-03-23T03:20:30;13.9;70.1
78704;SHT31;68034;51.966;5.676;2023-03-23T03:23:00;13.9;70.0
78704;SHT31;68034;51.966;5.676;2023-03-23T03:25:33;13.9;69.9
78704;SHT31;68034;51.966;5.676;2023-03-23T03:28:02;13.9;70.1
78704;SHT31;68034;51.966;5.676;2023-03-23T03:30:35;13.9;70.4
78704;SHT31;68034;51.966;5.676;2023-03-23T03:33:06;13.9;70.4
78704;SHT31;68034;51.966;5.676;2023-03-23T03:35:36;13.9;70.3
78704;SHT31;68034;51.966;5.676;2023-03-23T03:38:10;13.9;70.3
78704;SHT31;68034;51.966;5.676;2023-03-23T03:40:40;13.9;70.1
78704;SHT31;68034;51.966;5.676;2023-03-23T03:43:09;13.9;70.2
78704;SHT31;68034;51.966;5.676;2023-03-23T03:45:39;13.9;70.2
78704;SHT31;68034;51.966;5.676;2023-03-23T03:48:08;13.9;70.5
78704;SHT31;68034;51.966;5.676;2023-03-23T03:50:37;13.9;70.4
78704;SHT31;68034;51.966;5.676;2023-03-23T03:53:06;13.9;70.1
78704;SHT31;68034;51.966;5.676;2023-03-23T03:55:36;13.9;70.4
78704;SHT31;68034;51.966;5.676;2023-03-23T03:58:04;13.9;70.3
78704;SHT31;68034;51.966;5.676;2023-03-23T04:00:34;13.9;70.0
78704;SHT31;68034;51.966;5.676;2023-03-23T04:03:05;13.9;70.3
78704;SHT31;68034;51.966;5.676;2023-03-23T04:05:36;13.9;70.0
78704;SHT31;68034;51.966;5.676;2023-03-23T04:08:05;13.9;69.9
78704;SHT31;68034;51.966;5.676;2023-03-23T04:10:33;13.9;69.7
78704;SHT31;68034;51.966;5.676;2023-03-23T04:13:02;13.9;69.4
78704;SHT31;68034;51.966;5.676;2023-03-23T04:15:32;13.9;69.3
78704;SHT31;68034;51.966;5.676;2023-03-23T04:18:01;13.9;69.3
78704;SHT31;68034;51.966;5.676;2023-03-23T04:20:32;13.9;69.2
78704;SHT31;68034;51.966;5.676;2023-03-23T04:23:01;13.9;69.2
78704;SHT31;68034;51.966;5.676;2023-03-23T04:25:30;13.9;69.3
78704;SHT31;68034;51.966;5.676;2023-03-23T04:28:01;13.9;69.5
78704;SHT31;68034;51.966;5.676;2023-03-23T04:30:30;13.9;69.1
78704;SHT31;68034;51.966;5.676;2023-03-23T04:32:59;13.9;68.9
78704;SHT31;68034;51.966;5.676;2023-03-23T04:35:28;13.9;69.1
78704;SHT31;68034;51.966;5.676;2023-03-23T04:37:59;13.9;68.5
78704;SHT31;68034;51.966;5.676;2023-03-23T04:40:30;14.0;68.9
78704;SHT31;68034;51.966;5.676;2023-03-23T04:42:59;14.0;68.8
78704;SHT31;68034;51.966;5.676;2023-03-23T04:45:32;14.0;68.7
78704;SHT31;68034;51.966;5.676;2023-03-23T04:48:05;14.0;68.6
78704;SHT31;68034;51.966;5.676;2023-03-23T04:50:39;14.0;68.7
78704;SHT31;68034;51.966;5.676;2023-03-23T04:53:09;14.1;68.4
78704;SHT31;68034;51.966;5.676;2023-03-23T04:55:38;14.1;67.4
78704;SHT31;68034;51.966;5.676;2023-03-23T04:58:07;14.1;67.4
78704;SHT31;68034;51.966;5.676;2023-03-23T05:00:36;14.2;67.2
78704;SHT31;68034;51.966;5.676;2023-03-23T05:03:07;14.1;67.2
78704;SHT31;68034;51.966;5.676;2023-03-23T05:05:36;14.1;67.2
78704;SHT31;68034;51.966;5.676;2023-03-23T05:08:07;14.1;67.1
78704;SHT31;68034;51.966;5.676;2023-03-23T05:10:35;14.1;67.1
78704;SHT31;68034;51.966;5.676;2023-03-23T05:13:04;14.1;67.5
78704;SHT31;68034;51.966;5.676;2023-03-23T05:15:33;14.1;67.5
78704;SHT31;68034;51.966;5.676;2023-03-23T05:18:02;14.0;67.6
78704;SHT31;68034;51.966;5.676;2023-03-23T05:20:32;14.0;67.5
78704;SHT31;68034;51.966;5.676;2023-03-23T05:23:01;14.0;67.4
78704;SHT31;68034;51.966;5.676;2023-03-23T05:25:31;14.0;67.7
78704;SHT31;68034;51.966;5.676;2023-03-23T05:28:06;14.0;67.9
78704;SHT31;68034;51.966;5.676;2023-03-23T05:30:35;14.1;67.6
78704;SHT31;68034;51.966;5.676;2023-03-23T05:33:05;14.2;66.9
78704;SHT31;68034;51.966;5.676;2023-03-23T05:35:33;14.2;66.4
78704;SHT31;68034;51.966;5.676;2023-03-23T05:38:02;14.2;66.7
78704;SHT31;68034;51.966;5.676;2023-03-23T05:40:31;14.2;67.3
78704;SHT31;68034;51.966;5.676;2023-03-23T05:43:02;14.2;67.2
78704;SHT31;68034;51.966;5.676;2023-03-23T05:45:31;14.2;67.1
78704;SHT31;68034;51.966;5.676;2023-03-23T05:48:01;14.1;67.2
78704;SHT31;68034;51.966;5.676;2023-03-23T05:50:30;14.1;67.1
78704;SHT31;68034;51.966;5.676;2023-03-23T05:52:59;14.1;67.3
78704;SHT31;68034;51.966;5.676;2023-03-23T05:55:30;14.0;67.4
78704;SHT31;68034;51.966;5.676;2023-03-23T05:58:00;14.0;67.8
78704;SHT31;68034;51.966;5.676;2023-03-23T06:00:29;14.0;67.3
78704;SHT31;68034;51.966;5.676;2023-03-23T06:02:59;13.9;67.5
78704;SHT31;68034;51.966;5.676;2023-03-23T06:05:28;13.9;67.8
78704;SHT31;68034;51.966;5.676;2023-03-23T06:07:59;13.9;67.7
78704;SHT31;68034;51.966;5.676;2023-03-23T06:10:28;13.9;67.9
78704;SHT31;68034;51.966;5.676;2023-03-23T06:12:57;13.9;68.3
78704;SHT31;68034;51.966;5.676;2023-03-23T06:15:28;13.9;67.9
78704;SHT31;68034;51.966;5.676;2023-03-23T06:18:00;13.9;68.3
78704;SHT31;68034;51.966;5.676;2023-03-23T06:20:30;13.9;68.2
78704;SHT31;68034;51.966;5.676;2023-03-23T06:22:59;13.9;68.6
78704;SHT31;68034;51.966;5.676;2023-03-23T06:25:28;13.9;68.3
78704;SHT31;68034;51.966;5.676;2023-03-23T06:27:57;13.9;68.2
78704;SHT31;68034;51.966;5.676;2023-03-23T06:30:26;13.9;68.4
78704;SHT31;68034;51.966;5.676;2023-03-23T06:32:55;13.9;68.5
78704;SHT31;68034;51.966;5.676;2023-03-23T06:35:24;13.9;68.5
78704;SHT31;68034;51.966;5.676;2023-03-23T06:37:53;13.9;68.4
78704;SHT31;68034;51.966;5.676;2023-03-23T06:40:24;13.9;68.0
78704;SHT31;68034;51.966;5.676;2023-03-23T06:42:56;14.0;68.3
78704;SHT31;68034;51.966;5.676;2023-03-23T06:45:26;14.0;68.4
78704;SHT31;68034;51.966;5.676;2023-03-23T06:47:54;14.0;68.1
78704;SHT31;68034;51.966;5.676;2023-03-23T06:50:23;14.0;68.2
78704;SHT31;68034;51.966;5.676;2023-03-23T06:52:52;14.0;68.2
78704;SHT31;68034;51.966;5.676;2023-03-23T06:55:21;14.0;68.1
78704;SHT31;68034;51.966;5.676;2023-03-23T06:57:50;14.0;68.6
78704;SHT31;68034;51.966;5.676;2023-03-23T07:00:19;14.0;68.2
78704;SHT31;68034;51.966;5.676;2023-03-23T07:02:50;14.0;68.6
78704;SHT31;68034;51.966;5.676;2023-03-23T07:05:19;14.0;68.5
78704;SHT31;68034;51.966;5.676;2023-03-23T07:07:48;14.0;68.4
78704;SHT31;68034;51.966;5.676;2023-03-23T07:10:17;14.0;68.5
78704;SHT31;68034;51.966;5.676;2023-03-23T07:12:46;14.0;68.4
78704;SHT31;68034;51.966;5.676;2023-03-23T07:15:16;14.0;68.6
78704;SHT31;68034;51.966;5.676;2023-03-23T07:17:47;14.0;68.6
78704;SHT31;68034;51.966;5.676;2023-03-23T07:20:24;14.0;68.2
78704;SHT31;68034;51.966;5.676;2023-03-23T07:22:59;14.1;69.2
78704;SHT31;68034;51.966;5.676;2023-03-23T07:25:32;14.2;68.6
78704;SHT31;68034;51.966;5.676;2023-03-23T07:28:02;14.2;68.1
78704;SHT31;68034;51.966;5.676;2023-03-23T07:30:34;14.2;68.0
78704;SHT31;68034;51.966;5.676;2023-03-23T07:33:30;14.3;68.4
78704;SHT31;68034;51.966;5.676;2023-03-23T07:36:07;14.3;68.0
78704;SHT31;68034;51.966;5.676;2023-03-23T07:39:22;14.2;67.3
78704;SHT31;68034;51.966;5.676;2023-03-23T07:41:52;14.2;67.4
78704;SHT31;68034;51.966;5.676;2023-03-23T07:44:21;14.2;67.4
78704;SHT31;68034;51.966;5.676;2023-03-23T07:46:51;14.2;67.2
78704;SHT31;68034;51.966;5.676;2023-03-23T07:49:20;14.2;67.7
78704;SHT31;68034;51.966;5.676;2023-03-23T07:51:49;14.1;68.9
78704;SHT31;68034;51.966;5.676;2023-03-23T07:54:17;14.1;69.4
78704;SHT31;68034;51.966;5.676;2023-03-23T07:56:46;14.0;69.7
78704;SHT31;68034;51.966;5.676;2023-03-23T07:59:15;14.0;70.5
78704;SHT31;68034;51.966;5.676;2023-03-23T08:01:45;13.9;70.8
78704;SHT31;68034;51.966;5.676;2023-03-23T08:04:14;13.8;71.5
78704;SHT31;68034;51.966;5.676;2023-03-23T08:06:44;13.7;71.8
78704;SHT31;68034;51.966;5.676;2023-03-23T08:09:13;13.7;73.1
78704;SHT31;68034;51.966;5.676;2023-03-23T08:11:42;13.7;73.5
78704;SHT31;68034;51.966;5.676;2023-03-23T08:14:13;13.7;73.3
78704;SHT31;68034;51.966;5.676;2023-03-23T08:16:42;13.7;73.5
78704;SHT31;68034;51.966;5.676;2023-03-23T08:19:11;13.7;73.7
78704;SHT31;68034;51.966;5.676;2023-03-23T08:21:40;13.7;73.9
78704;SHT31;68034;51.966;5.676;2023-03-23T08:24:10;13.7;73.4
78704;SHT31;68034;51.966;5.676;2023-03-23T08:26:40;13.7;74.2
78704;SHT31;68034;51.966;5.676;2023-03-23T08:29:09;13.6;74.2
78704;SHT31;68034;51.966;5.676;2023-03-23T08:31:38;13.6;73.9
78704;SHT31;68034;51.966;5.676;2023-03-23T08:34:07;13.6;73.9
78704;SHT31;68034;51.966;5.676;2023-03-23T08:36:36;13.6;74.3
78704;SHT31;68034;51.966;5.676;2023-03-23T08:39:06;13.6;73.8
78704;SHT31;68034;51.966;5.676;2023-03-23T08:41:35;13.6;74.2
78704;SHT31;68034;51.966;5.676;2023-03-23T08:44:07;13.6;73.3
78704;SHT31;68034;51.966;5.676;2023-03-23T08:46:36;13.6;73.6
78704;SHT31;68034;51.966;5.676;2023-03-23T08:49:05;13.6;72.3
78704;SHT31;68034;51.966;5.676;2023-03-23T08:51:34;13.6;72.8
78704;SHT31;68034;51.966;5.676;2023-03-23T08:54:04;13.6;72.5
78704;SHT31;68034;51.966;5.676;2023-03-23T08:56:34;13.6;72.4
78704;SHT31;68034;51.966;5.676;2023-03-23T08:59:03;13.6;71.9
78704;SHT31;68034;51.966;5.676;2023-03-23T09:01:33;13.6;71.4
78704;SHT31;68034;51.966;5.676;2023-03-23T09:04:02;13.6;71.2
78704;SHT31;68034;51.966;5.676;2023-03-23T09:06:31;13.6;71.0
78704;SHT31;68034;51.966;5.676;2023-03-23T09:09:02;13.6;70.9
78704;SHT31;68034;51.966;5.676;2023-03-23T09:11:33;13.6;72.0
78704;SHT31;68034;51.966;5.676;2023-03-23T09:14:04;13.6;70.4
78704;SHT31;68034;51.966;5.676;2023-03-23T09:16:34;13.6;70.9
78704;SHT31;68034;51.966;5.676;2023-03-23T09:19:06;13.6;70.8
78704;SHT31;68034;51.966;5.676;2023-03-23T09:21:36;13.7;69.7
78704;SHT31;68034;51.966;5.676;2023-03-23T09:24:05;13.7;71.0
78704;SHT31;68034;51.966;5.676;2023-03-23T09:26:36;13.8;71.9
78704;SHT31;68034;51.966;5.676;2023-03-23T09:29:05;13.9;71.5
78704;SHT31;68034;51.966;5.676;2023-03-23T09:31:34;14.0;70.5
78704;SHT31;68034;51.966;5.676;2023-03-23T09:34:03;14.1;70.9
78704;SHT31;68034;51.966;5.676;2023-03-23T09:36:34;14.2;69.2
78704;SHT31;68034;51.966;5.676;2023-03-23T09:39:05;14.2;67.6
78704;SHT31;68034;51.966;5.676;2023-03-23T09:41:59;14.3;68.3
78704;SHT31;68034;51.966;5.676;2023-03-23T09:44:41;14.3;67.9
78704;SHT31;68034;51.966;5.676;2023-03-23T09:47:22;14.4;66.8
78704;SHT31;68034;51.966;5.676;2023-03-23T09:49:57;14.4;68.4
78704;SHT31;68034;51.966;5.676;2023-03-23T09:52:40;14.5;69.4
78704;SHT31;68034;51.966;5.676;2023-03-23T09:55:24;14.7;67.4
78704;SHT31;68034;51.966;5.676;2023-03-23T09:58:12;15.0;65.5
78704;SHT31;68034;51.966;5.676;2023-03-23T10:00:48;15.1;65.9
78704;SHT31;68034;51.966;5.676;2023-03-23T10:03:21;15.1;65.1
78704;SHT31;68034;51.966;5.676;2023-03-23T10:05:55;15.2;63.5
78704;SHT31;68034;51.966;5.676;2023-03-23T10:08:26;15.2;64.7
78704;SHT31;68034;51.966;5.676;2023-03-23T10:11:03;15.3;63.8
78704;SHT31;68034;51.966;5.676;2023-03-23T10:13:52;15.4;64.7
78704;SHT31;68034;51.966;5.676;2023-03-23T10:16:32;15.4;63.3
78704;SHT31;68034;51.966;5.676;2023-03-23T10:19:03;15.5;63.3
78704;SHT31;68034;51.966;5.676;2023-03-23T10:21:41;15.6;62.4
78704;SHT31;68034;51.966;5.676;2023-03-23T10:24:15;15.6;62.3
78704;SHT31;68034;51.966;5.676;2023-03-23T10:26:53;15.6;60.6
78704;SHT31;68034;51.966;5.676;2023-03-23T10:29:27;15.7;62.3
78704;SHT31;68034;51.966;5.676;2023-03-23T10:32:00;15.7;63.1
78704;SHT31;68034;51.966;5.676;2023-03-23T10:34:40;15.8;62.5
78704;SHT31;68034;51.966;5.676;2023-03-23T10:37:13;15.8;61.2
78704;SHT31;68034;51.966;5.676;2023-03-23T10:39:49;15.9;61.1
78704;SHT31;68034;51.966;5.676;2023-03-23T10:42:30;16.0;60.0
78704;SHT31;68034;51.966;5.676;2023-03-23T10:45:09;16.0;59.3
78704;SHT31;68034;51.966;5.676;2023-03-23T10:47:38;16.0;60.4
78704;SHT31;68034;51.966;5.676;2023-03-23T10:50:15;16.1;59.4
78704;SHT31;68034;51.966;5.676;2023-03-23T10:52:45;16.1;62.3
78704;SHT31;68034;51.966;5.676;2023-03-23T10:55:16;16.4;59.7
78704;SHT31;68034;51.966;5.676;2023-03-23T10:57:58;16.5;58.9
78704;SHT31;68034;51.966;5.676;2023-03-23T11:00:23;16.5;57.8
78704;SHT31;68034;51.966;5.676;2023-03-23T11:03:01;16.6;56.3
78704;SHT31;68034;51.966;5.676;2023-03-23T11:05:36;16.7;56.6
78704;SHT31;68034;51.966;5.676;2023-03-23T11:08:12;16.7;59.4
78704;SHT31;68034;51.966;5.676;2023-03-23T11:10:50;16.7;58.1
78704;SHT31;68034;51.966;5.676;2023-03-23T11:13:22;16.8;56.7
78704;SHT31;68034;51.966;5.676;2023-03-23T11:15:52;16.9;56.3
78704;SHT31;68034;51.966;5.676;2023-03-23T11:18:23;16.9;56.7
78704;SHT31;68034;51.966;5.676;2023-03-23T11:20:55;17.0;57.5
78704;SHT31;68034;51.966;5.676;2023-03-23T11:23:28;17.0;55.4
78704;SHT31;68034;51.966;5.676;2023-03-23T11:26:01;17.0;55.8
78704;SHT31;68034;51.966;5.676;2023-03-23T11:28:36;16.9;56.8
78704;SHT31;68034;51.966;5.676;2023-03-23T11:31:06;16.9;57.3
78704;SHT31;68034;51.966;5.676;2023-03-23T11:33:52;16.9;56.8
78704;SHT31;68034;51.966;5.676;2023-03-23T11:36:35;16.9;54.8
78704;SHT31;68034;51.966;5.676;2023-03-23T11:39:24;16.9;55.8
78704;SHT31;68034;51.966;5.676;2023-03-23T11:41:55;16.9;56.9
78704;SHT31;68034;51.966;5.676;2023-03-23T11:44:33;16.9;56.2
78704;SHT31;68034;51.966;5.676;2023-03-23T11:47:11;16.9;55.4
78704;SHT31;68034;51.966;5.676;2023-03-23T11:49:53;16.9;54.1
78704;SHT31;68034;51.966;5.676;2023-03-23T11:52:32;16.9;54.7
78704;SHT31;68034;51.966;5.676;2023-03-23T11:55:11;16.9;53.5
78704;SHT31;68034;51.966;5.676;2023-03-23T11:57:42;16.9;54.8
78704;SHT31;68034;51.966;5.676;2023-03-23T12:00:18;16.9;54.7
78704;SHT31;68034;51.966;5.676;2023-03-23T12:05:55;16.9;53.6
78704;SHT31;68034;51.966;5.676;2023-03-23T12:08:36;17.0;53.5
78704;SHT31;68034;51.966;5.676;2023-03-23T12:11:17;17.0;53.9
78704;SHT31;68034;51.966;5.676;2023-03-23T12:14:40;17.0;54.7
78704;SHT31;68034;51.966;5.676;2023-03-23T12:17:19;17.0;53.7
78704;SHT31;68034;51.966;5.676;2023-03-23T12:20:03;17.0;54.9
78704;SHT31;68034;51.966;5.676;2023-03-23T12:22:50;17.0;54.2
78704;SHT31;68034;51.966;5.676;2023-03-23T12:26:26;17.0;55.8
78704;SHT31;68034;51.966;5.676;2023-03-23T12:29:45;17.1;55.3
78704;SHT31;68034;51.966;5.676;2023-03-23T12:33:37;17.0;59.2
78704;SHT31;68034;51.966;5.676;2023-03-23T12:36:22;17.0;58.7
78704;SHT31;68034;51.966;5.676;2023-03-23T12:39:06;16.9;61.4
78704;SHT31;68034;51.966;5.676;2023-03-23T12:41:47;16.7;63.2
78704;SHT31;68034;51.966;5.676;2023-03-23T12:44:24;16.5;64.1
78704;SHT31;68034;51.966;5.676;2023-03-23T12:47:06;16.3;66.4
78704;SHT31;68034;51.966;5.676;2023-03-23T12:49:41;16.0;68.4
78704;SHT31;68034;51.966;5.676;2023-03-23T12:52:16;15.8;68.7
78704;SHT31;68034;51.966;5.676;2023-03-23T12:54:55;15.6;69.7
78704;SHT31;68034;51.966;5.676;2023-03-23T12:57:32;15.5;70.1
78704;SHT31;68034;51.966;5.676;2023-03-23T13:00:08;15.4;69.9
78704;SHT31;68034;51.966;5.676;2023-03-23T13:02:44;15.3;71.0
78704;SHT31;68034;51.966;5.676;2023-03-23T13:05:29;15.2;71.2
78704;SHT31;68034;51.966;5.676;2023-03-23T13:08:04;15.1;70.1
78704;SHT31;68034;51.966;5.676;2023-03-23T13:10:39;15.1;67.3
78704;SHT31;68034;51.966;5.676;2023-03-23T13:13:17;15.0;65.7
78704;SHT31;68034;51.966;5.676;2023-03-23T13:15:55;14.8;67.4
78704;SHT31;68034;51.966;5.676;2023-03-23T13:18:37;14.8;72.6
78704;SHT31;68034;51.966;5.676;2023-03-23T13:21:16;14.9;73.1
78704;SHT31;68034;51.966;5.676;2023-03-23T13:23:53;15.1;70.8
78704;SHT31;68034;51.966;5.676;2023-03-23T13:26:23;15.4;69.2
78704;SHT31;68034;51.966;5.676;2023-03-23T13:28:58;15.6;69.6
78704;SHT31;68034;51.966;5.676;2023-03-23T13:31:30;16.0;68.1
78704;SHT31;68034;51.966;5.676;2023-03-23T13:34:02;16.3;66.7
78704;SHT31;68034;51.966;5.676;2023-03-23T13:36:36;16.5;64.9
78704;SHT31;68034;51.966;5.676;2023-03-23T13:39:19;16.7;63.1
78704;SHT31;68034;51.966;5.676;2023-03-23T13:42:02;16.8;60.7
78704;SHT31;68034;51.966;5.676;2023-03-23T13:44:43;16.8;61.4
78704;SHT31;68034;51.966;5.676;2023-03-23T13:47:27;16.8;61.1
78704;SHT31;68034;51.966;5.676;2023-03-23T13:49:59;16.8;60.3
78704;SHT31;68034;51.966;5.676;2023-03-23T13:52:45;16.7;61.2
78704;SHT31;68034;51.966;5.676;2023-03-23T13:55:38;16.7;61.0
78704;SHT31;68034;51.966;5.676;2023-03-23T13:58:21;16.6;61.9
78704;SHT31;68034;51.966;5.676;2023-03-23T14:01:12;16.6;63.7
78704;SHT31;68034;51.966;5.676;2023-03-23T14:03:45;16.6;62.7
78704;SHT31;68034;51.966;5.676;2023-03-23T14:06:18;16.6;62.8
78704;SHT31;68034;51.966;5.676;2023-03-23T14:08:53;16.6;62.8
78704;SHT31;68034;51.966;5.676;2023-03-23T14:11:24;16.5;64.0
78704;SHT31;68034;51.966;5.676;2023-03-23T14:14:03;16.5;63.7
78704;SHT31;68034;51.966;5.676;2023-03-23T14:16:37;16.5;64.6
78704;SHT31;68034;51.966;5.676;2023-03-23T14:19:15;16.4;64.1
78704;SHT31;68034;51.966;5.676;2023-03-23T14:21:52;16.3;63.7
78704;SHT31;68034;51.966;5.676;2023-03-23T14:24:23;16.3;64.6
78704;SHT31;68034;51.966;5.676;2023-03-23T14:27:08;16.2;64.2
78704;SHT31;68034;51.966;5.676;2023-03-23T14:29:38;16.2;64.9
78704;SHT31;68034;51.966;5.676;2023-03-23T14:32:12;16.2;64.0
78704;SHT31;68034;51.966;5.676;2023-03-23T14:34:43;16.2;63.7
78704;SHT31;68034;51.966;5.676;2023-03-23T14:37:15;16.3;64.3
78704;SHT31;68034;51.966;5.676;2023-03-23T14:39:48;16.4;62.3
78704;SHT31;68034;51.966;5.676;2023-03-23T14:42:26;16.5;64.4
78704;SHT31;68034;51.966;5.676;2023-03-23T14:44:55;16.8;62.2
78704;SHT31;68034;51.966;5.676;2023-03-23T14:47:27;17.2;59.7
78704;SHT31;68034;51.966;5.676;2023-03-23T14:50:00;17.6;57.9
78704;SHT31;68034;51.966;5.676;2023-03-23T14:52:34;18.0;57.1
78704;SHT31;68034;51.966;5.676;2023-03-23T14:55:30;18.3;56.0
78704;SHT31;68034;51.966;5.676;2023-03-23T14:58:09;18.9;55.2
78704;SHT31;68034;51.966;5.676;2023-03-23T15:00:44;19.3;53.8
78704;SHT31;68034;51.966;5.676;2023-03-23T15:03:17;19.5;51.2
78704;SHT31;68034;51.966;5.676;2023-03-23T15:05:51;19.6;52.4
78704;SHT31;68034;51.966;5.676;2023-03-23T15:08:25;19.8;52.5
78704;SHT31;68034;51.966;5.676;2023-03-23T15:11:02;19.9;52.5
78704;SHT31;68034;51.966;5.676;2023-03-23T15:13:33;20.1;49.3
78704;SHT31;68034;51.966;5.676;2023-03-23T15:16:17;20.2;49.7
78704;SHT31;68034;51.966;5.676;2023-03-23T15:18:50;20.2;50.2
78704;SHT31;68034;51.966;5.676;2023-03-23T15:21:23;20.3;49.8
78704;SHT31;68034;51.966;5.676;2023-03-23T15:23:53;20.3;48.2
78704;SHT31;68034;51.966;5.676;2023-03-23T15:26:31;20.3;49.1
78704;SHT31;68034;51.966;5.676;2023-03-23T15:29:11;20.4;47.7
78704;SHT31;68034;51.966;5.676;2023-03-23T15:31:44;20.4;47.8
78704;SHT31;68034;51.966;5.676;2023-03-23T15:34:20;20.4;48.5
78704;SHT31;68034;51.966;5.676;2023-03-23T15:36:55;20.4;47.5
78704;SHT31;68034;51.966;5.676;2023-03-23T15:39:24;20.4;47.1
78704;SHT31;68034;51.966;5.676;2023-03-23T15:41:55;20.3;47.6
78704;SHT31;68034;51.966;5.676;2023-03-23T15:44:30;20.2;48.1
78704;SHT31;68034;51.966;5.676;2023-03-23T15:47:17;20.2;47.6
78704;SHT31;68034;51.966;5.676;2023-03-23T15:50:04;20.1;49.0
78704;SHT31;68034;51.966;5.676;2023-03-23T15:52:36;20.0;48.9
78704;SHT31;68034;51.966;5.676;2023-03-23T15:55:23;19.9;49.4
78704;SHT31;68034;51.966;5.676;2023-03-23T15:57:54;19.8;50.2
78704;SHT31;68034;51.966;5.676;2023-03-23T16:00:25;19.7;49.8
78704;SHT31;68034;51.966;5.676;2023-03-23T16:02:57;19.6;49.9
78704;SHT31;68034;51.966;5.676;2023-03-23T16:05:27;19.6;50.2
78704;SHT31;68034;51.966;5.676;2023-03-23T16:07:56;19.5;50.8
78704;SHT31;68034;51.966;5.676;2023-03-23T16:10:26;19.5;51.3
78704;SHT31;68034;51.966;5.676;2023-03-23T16:12:55;19.4;50.9
78704;SHT31;68034;51.966;5.676;2023-03-23T16:15:24;19.4;49.8
78704;SHT31;68034;51.966;5.676;2023-03-23T16:17:54;19.4;49.2
78704;SHT31;68034;51.966;5.676;2023-03-23T16:20:23;19.4;48.9
78704;SHT31;68034;51.966;5.676;2023-03-23T16:22:52;19.3;48.6
78704;SHT31;68034;51.966;5.676;2023-03-23T16:25:21;19.2;48.6
78704;SHT31;68034;51.966;5.676;2023-03-23T16:27:50;19.1;49.6
78704;SHT31;68034;51.966;5.676;2023-03-23T16:30:22;19.1;50.4
78704;SHT31;68034;51.966;5.676;2023-03-23T16:32:51;19.1;50.0
78704;SHT31;68034;51.966;5.676;2023-03-23T16:35:21;19.0;49.4
78704;SHT31;68034;51.966;5.676;2023-03-23T16:37:52;19.0;49.2
78704;SHT31;68034;51.966;5.676;2023-03-23T16:40:22;19.0;49.7
78704;SHT31;68034;51.966;5.676;2023-03-23T16:42:51;18.9;49.4
78704;SHT31;68034;51.966;5.676;2023-03-23T16:45:20;18.8;50.0
78704;SHT31;68034;51.966;5.676;2023-03-23T16:47:49;18.6;50.2
78704;SHT31;68034;51.966;5.676;2023-03-23T16:50:20;18.5;50.3
78704;SHT31;68034;51.966;5.676;2023-03-23T16:52:49;18.5;50.7